Grandview Heights, Ohio
Current Conditions -  °F | °C
As of 5:53 AM on Thursday 23 Oct 2014 (Local Time) from KOSU Reporting Station
Clear Clear  
Wind Chill:   Ceiling: Unl
Heat Index:   Visibility: 7mi
Dew Point:   Wind: 7mph
Humidity: 93%   Direction: 320°NW
Pressure: 30.23"   Gusts: NA
Location:  39.987°N, 83.0425°W
Report Text: KOSU 230953Z AUTO 32006KT 7SM CLR 04/03 A3023 RMK AO2 SLP242 T00440033
Loading
Personal Weather Stations






























Interactive Weather Map
Tropical Storm Tracking
New forecast layout! Learn more

10-Day Weather Forecast

Advertisements
Track Severe Weather on mobile